createdAt,value
2016-04-19T00:00:59.577Z,0
2016-04-19T00:01:59.751Z,0
2016-04-19T00:02:59.769Z,0
2016-04-19T00:03:59.772Z,0
2016-04-19T00:04:59.805Z,0
2016-04-19T00:05:59.793Z,0
2016-04-19T00:06:59.811Z,0
2016-04-19T00:07:59.829Z,0
2016-04-19T00:08:59.864Z,0
2016-04-19T00:09:59.851Z,0
2016-04-19T00:10:59.884Z,0
2016-04-19T00:11:59.934Z,0
2016-04-19T00:12:59.905Z,0
2016-04-19T00:13:59.924Z,0
2016-04-19T00:14:59.942Z,0
2016-04-19T00:15:59.945Z,0
2016-04-19T00:16:59.962Z,0
2016-04-19T00:17:59.982Z,0
2016-04-19T00:19:00.015Z,0
2016-04-19T00:20:00.033Z,0
2016-04-19T00:21:00.005Z,0
2016-04-19T00:21:59.863Z,0
2016-04-19T00:23:00.054Z,0
2016-04-19T00:24:00.040Z,0
2016-04-19T00:25:00.074Z,0
2016-04-19T00:26:00.108Z,0
2016-04-19T00:27:00.095Z,0
2016-04-19T00:28:00.114Z,0
2016-04-19T00:29:00.116Z,0
2016-04-19T00:30:00.134Z,0
2016-04-19T00:31:00.185Z,0
2016-04-19T00:32:00.171Z,0
2016-04-19T00:33:00.190Z,0
2016-04-19T00:34:00.224Z,0
2016-04-19T00:35:00.211Z,0
2016-04-19T00:36:00.214Z,0
2016-04-19T00:37:00.247Z,0
2016-04-19T00:38:00.250Z,0
2016-04-19T00:39:00.267Z,0
2016-04-19T00:40:00.287Z,0
2016-04-19T00:41:00.305Z,0
2016-04-19T00:42:00.308Z,0
2016-04-19T00:43:00.311Z,0
2016-04-19T00:44:00.345Z,0
2016-04-19T00:45:14.472Z,0
2016-04-19T00:46:00.366Z,0
2016-04-19T00:47:00.383Z,0
2016-04-19T00:48:00.402Z,0
2016-04-19T00:49:00.452Z,0
2016-04-19T00:50:00.408Z,0
2016-04-19T00:51:00.457Z,0
2016-04-19T00:52:00.444Z,0
2016-04-19T00:53:00.446Z,0
2016-04-19T00:54:00.480Z,0
2016-04-19T00:55:00.498Z,0
2016-04-19T00:56:00.501Z,0
2016-04-19T00:57:00.536Z,0
2016-04-19T00:58:00.523Z,0
2016-04-19T00:59:00.385Z,0
2016-04-19T01:00:00.543Z,0
2016-04-19T01:01:00.577Z,0
2016-04-19T01:02:00.580Z,0
2016-04-19T01:03:00.615Z,0
2016-04-19T01:04:00.601Z,0
2016-04-19T01:05:00.635Z,0
2016-04-19T01:06:00.638Z,0
2016-04-19T01:07:00.657Z,0
2016-04-19T01:08:00.675Z,0
2016-04-19T01:09:00.678Z,0
2016-04-19T01:10:00.711Z,0
2016-04-19T01:11:00.729Z,0
2016-04-19T01:12:00.561Z,0
2016-04-19T01:13:00.735Z,0
2016-04-19T01:14:00.753Z,0
2016-04-19T01:15:00.756Z,0
2016-04-19T01:16:00.790Z,0
2016-04-19T01:17:00.808Z,0
2016-04-19T01:18:00.811Z,0
2016-04-19T01:19:00.845Z,0
2016-04-19T01:20:00.847Z,0
2016-04-19T01:21:00.850Z,0
2016-04-19T01:22:00.853Z,0
2016-04-19T01:23:00.871Z,0
2016-04-19T01:24:00.874Z,0
2016-04-19T01:25:00.939Z,0
2016-04-19T01:26:00.926Z,0
2016-04-19T01:27:00.929Z,0
2016-04-19T01:28:00.932Z,0
2016-04-19T01:29:00.966Z,0
2016-04-19T01:30:00.984Z,0
2016-04-19T01:31:01.002Z,0
2016-04-19T01:32:01.004Z,0
2016-04-19T01:33:01.023Z,0
2016-04-19T01:34:01.010Z,0
2016-04-19T01:35:01.060Z,0
2016-04-19T01:36:01.046Z,0
2016-04-19T01:37:01.065Z,0
2016-04-19T01:38:01.083Z,0
2016-04-19T01:39:01.134Z,0
2016-04-19T01:40:01.104Z,0
2016-04-19T01:41:01.123Z,0
2016-04-19T01:42:01.125Z,0
2016-04-19T01:43:01.128Z,0
2016-04-19T01:44:01.147Z,0
2016-04-19T01:45:01.164Z,0
2016-04-19T01:46:01.198Z,0
2016-04-19T01:47:01.217Z,0
2016-04-19T01:48:01.204Z,0
2016-04-19T01:49:01.222Z,0
2016-04-19T01:50:01.225Z,0
2016-04-19T01:51:01.258Z,0
2016-04-19T01:52:01.278Z,0
2016-04-19T01:53:01.279Z,0
2016-04-19T01:54:01.282Z,0
2016-04-19T01:55:01.302Z,0
2016-04-19T01:56:01.319Z,0
2016-04-19T01:57:01.338Z,0
2016-04-19T01:58:01.340Z,0
2016-04-19T01:59:00.608Z,0
2016-04-19T02:00:01.407Z,0
2016-04-19T02:01:01.410Z,0
2016-04-19T02:02:01.413Z,0
2016-04-19T02:03:01.401Z,0
2016-04-19T02:04:01.434Z,0
2016-04-19T02:05:01.437Z,0
2016-04-19T02:06:01.440Z,0
2016-04-19T02:07:01.459Z,0
2016-04-19T02:08:01.476Z,0
2016-04-19T02:09:01.495Z,0
2016-04-19T02:10:01.513Z,0
2016-04-19T02:11:01.532Z,0
2016-04-19T02:12:01.550Z,0
2016-04-19T02:13:01.553Z,0
2016-04-19T02:14:01.555Z,0
2016-04-19T02:15:01.573Z,0
2016-04-19T02:16:01.575Z,0
2016-04-19T02:17:01.594Z,0
2016-04-19T02:18:01.613Z,0
2016-04-19T02:19:01.616Z,0
2016-04-19T02:20:01.633Z,0
2016-04-19T02:21:01.652Z,0
2016-04-19T02:22:01.686Z,0
2016-04-19T02:23:01.689Z,0
2016-04-19T02:24:01.691Z,0
2016-04-19T02:25:01.725Z,0
2016-04-19T02:26:01.713Z,0
2016-04-19T02:27:01.730Z,0
2016-04-19T02:28:01.765Z,0
2016-04-19T02:29:01.752Z,0
2016-04-19T02:30:01.771Z,0
2016-04-19T02:31:01.805Z,0
2016-04-19T02:32:01.822Z,0
2016-04-19T02:33:01.825Z,0
2016-04-19T02:34:01.844Z,0
2016-04-19T02:35:01.846Z,0
2016-04-19T02:36:01.880Z,0
2016-04-19T02:37:01.899Z,0
2016-04-19T02:38:01.980Z,0
2016-04-19T02:39:01.888Z,0
2016-04-19T02:40:01.907Z,0
2016-04-19T02:41:01.909Z,0
2016-04-19T02:42:01.943Z,0
2016-04-19T02:43:01.945Z,0
2016-04-19T02:44:01.979Z,0
2016-04-19T02:45:01.982Z,0
2016-04-19T02:46:02.001Z,0
2016-04-19T02:47:02.004Z,0
2016-04-19T02:48:02.007Z,0
2016-04-19T02:49:02.040Z,0
2016-04-19T02:50:02.075Z,0
2016-04-19T02:51:02.061Z,0
2016-04-19T02:52:02.080Z,0
2016-04-19T02:53:02.098Z,0
2016-04-19T02:54:02.085Z,0
2016-04-19T02:55:02.103Z,0
2016-04-19T02:56:02.121Z,0
2016-04-19T02:57:02.139Z,0
2016-04-19T02:58:02.174Z,0
2016-04-19T02:59:02.161Z,0
2016-04-19T03:00:02.164Z,0
2016-04-19T03:01:02.182Z,0
2016-04-19T03:02:02.216Z,0
2016-04-19T03:03:02.202Z,0
2016-04-19T03:04:02.237Z,0
2016-04-19T03:05:02.255Z,0
2016-04-19T03:06:02.257Z,0
2016-04-19T03:07:02.261Z,0
2016-04-19T03:08:02.279Z,0
2016-04-19T03:09:02.282Z,0
2016-04-19T03:10:02.299Z,0
2016-04-19T03:11:02.334Z,0
2016-04-19T03:12:02.337Z,0
2016-04-19T03:13:02.370Z,0
2016-04-19T03:14:02.357Z,0
2016-04-19T03:15:02.375Z,0
2016-04-19T03:16:02.394Z,0
2016-04-19T03:17:02.397Z,0
2016-04-19T03:18:02.415Z,0
2016-04-19T03:19:02.278Z,0
2016-04-19T03:20:02.437Z,0
2016-04-19T03:21:02.454Z,0
2016-04-19T03:22:02.457Z,0
2016-04-19T03:23:02.475Z,0
2016-04-19T03:24:02.509Z,0
2016-04-19T03:25:02.497Z,0
2016-04-19T03:26:02.530Z,0
2016-04-19T03:27:02.533Z,0
2016-04-19T03:28:02.551Z,0
2016-04-19T03:29:02.538Z,0
2016-04-19T03:30:02.572Z,0
2016-04-19T03:31:02.575Z,0
2016-04-19T03:32:02.594Z,0
2016-04-19T03:33:02.603Z,0
2016-04-19T03:34:02.680Z,0
2016-04-19T03:35:02.710Z,0
2016-04-19T03:36:02.788Z,0
2016-04-19T03:37:02.849Z,0
2016-04-19T03:38:02.891Z,0
2016-04-19T03:39:02.942Z,0
2016-04-19T03:40:02.975Z,0
2016-04-19T03:41:02.994Z,0
2016-04-19T03:42:03.012Z,0
2016-04-19T03:43:03.029Z,0
2016-04-19T03:44:03.053Z,0
2016-04-19T03:45:03.076Z,0
2016-04-19T03:46:03.083Z,0
2016-04-19T03:47:03.108Z,0
2016-04-19T03:48:03.146Z,0
2016-04-19T03:49:03.151Z,0
2016-04-19T03:50:03.172Z,0
2016-04-19T03:51:03.177Z,0
2016-04-19T03:52:03.197Z,0
2016-04-19T03:53:03.202Z,0
2016-04-19T03:54:03.220Z,0
2016-04-19T03:55:03.223Z,0
2016-04-19T03:56:03.274Z,0
2016-04-19T03:57:03.261Z,0
2016-04-19T03:58:03.264Z,4
2016-04-19T03:59:03.283Z,4
2016-04-19T04:00:03.286Z,0
2016-04-19T04:01:03.289Z,0
2016-04-19T04:02:03.323Z,4
2016-04-19T04:03:03.327Z,4
2016-04-19T04:04:03.346Z,0
2016-04-19T04:05:03.364Z,4
2016-04-19T04:06:03.367Z,4
2016-04-19T04:07:03.384Z,4
2016-04-19T04:08:03.387Z,4
2016-04-19T04:09:03.421Z,4
2016-04-19T04:10:03.409Z,4
2016-04-19T04:11:03.427Z,4
2016-04-19T04:12:03.445Z,8
2016-04-19T04:13:03.479Z,8
2016-04-19T04:14:03.467Z,8
2016-04-19T04:15:03.500Z,8
2016-04-19T04:16:03.503Z,12
2016-04-19T04:17:03.552Z,12
2016-04-19T04:18:03.539Z,8
2016-04-19T04:19:03.541Z,12
2016-04-19T04:20:03.560Z,16
2016-04-19T04:21:03.578Z,16
2016-04-19T04:22:03.597Z,16
2016-04-19T04:23:03.616Z,20
2016-04-19T04:24:03.619Z,24
2016-04-19T04:25:03.636Z,20
2016-04-19T04:26:03.639Z,24
2016-04-19T04:27:03.657Z,28
2016-04-19T04:28:03.660Z,28
2016-04-19T04:29:03.694Z,32
2016-04-19T04:30:03.712Z,32
2016-04-19T04:31:03.715Z,32
2016-04-19T04:32:03.701Z,40
2016-04-19T04:33:03.720Z,44
2016-04-19T04:34:03.738Z,44
2016-04-19T04:35:03.741Z,52
2016-04-19T04:36:03.760Z,56
2016-04-19T04:37:03.856Z,60
2016-04-19T04:38:03.781Z,64
2016-04-19T04:39:03.814Z,64
2016-04-19T04:40:03.817Z,68
2016-04-19T04:41:03.836Z,72
2016-04-19T04:42:03.823Z,80
2016-04-19T04:43:03.842Z,84
2016-04-19T04:44:03.859Z,88
2016-04-19T04:45:03.878Z,92
2016-04-19T04:46:03.880Z,100
2016-04-19T04:47:03.883Z,108
2016-04-19T04:48:03.917Z,120
2016-04-19T04:49:03.935Z,128
2016-04-19T04:50:03.938Z,136
2016-04-19T04:51:03.955Z,140
2016-04-19T04:52:03.974Z,144
2016-04-19T04:53:03.977Z,148
2016-04-19T04:54:03.980Z,148
2016-04-19T04:55:03.842Z,160
2016-04-19T04:56:04.017Z,164
2016-04-19T04:57:04.019Z,184
2016-04-19T04:58:04.053Z,188
2016-04-19T04:59:04.056Z,196
2016-04-19T05:00:04.105Z,200
2016-04-19T05:01:04.093Z,208
2016-04-19T05:02:04.095Z,212
2016-04-19T05:03:04.113Z,216
2016-04-19T05:04:04.131Z,220
2016-04-19T05:05:04.118Z,232
2016-04-19T05:06:04.137Z,252
2016-04-19T05:07:04.171Z,260
2016-04-19T05:08:04.174Z,268
2016-04-19T05:09:04.176Z,296
2016-04-19T05:10:04.195Z,324
2016-04-19T05:11:04.229Z,344
2016-04-19T05:12:04.215Z,352
2016-04-19T05:13:04.234Z,368
2016-04-19T05:14:04.253Z,368
2016-04-19T05:15:04.255Z,372
2016-04-19T05:16:04.274Z,376
2016-04-19T05:17:04.292Z,376
2016-04-19T05:18:04.295Z,376
2016-04-19T05:19:04.314Z,376
2016-04-19T05:20:04.316Z,404
2016-04-19T05:21:04.334Z,432
2016-04-19T05:22:04.367Z,468
2016-04-19T05:23:04.355Z,484
2016-04-19T05:24:04.513Z,508
2016-04-19T05:25:04.391Z,524
2016-04-19T05:26:04.394Z,536
2016-04-19T05:27:04.413Z,572
2016-04-19T05:28:04.430Z,612
2016-04-19T05:29:04.449Z,632
2016-04-19T05:30:04.452Z,616
2016-04-19T05:31:04.470Z,632
2016-04-19T05:32:04.473Z,652
2016-04-19T05:33:04.491Z,700
2016-04-19T05:34:04.510Z,808
2016-04-19T05:35:04.543Z,844
2016-04-19T05:36:04.546Z,892
2016-04-19T05:37:04.549Z,888
2016-04-19T05:38:04.551Z,940
2016-04-19T05:39:04.571Z,900
2016-04-19T05:40:04.588Z,864
2016-04-19T05:41:04.591Z,900
2016-04-19T05:42:04.625Z,968
2016-04-19T05:43:04.659Z,1036
2016-04-19T05:44:04.662Z,1052
2016-04-19T05:45:04.664Z,1044
2016-04-19T05:46:04.667Z,1044
2016-04-19T05:47:04.684Z,1072
2016-04-19T05:48:04.688Z,1068
2016-04-19T05:49:04.737Z,1572
2016-04-19T05:50:04.725Z,1020
2016-04-19T05:51:04.759Z,992
2016-04-19T05:52:04.746Z,944
2016-04-19T05:53:04.764Z,924
2016-04-19T05:54:04.766Z,928
2016-04-19T05:55:04.785Z,1048
2016-04-19T05:56:04.803Z,1180
2016-04-19T05:57:04.805Z,1328
2016-04-19T05:58:04.886Z,1484
2016-04-19T05:59:04.858Z,1620
2016-04-19T06:00:04.877Z,1796
2016-04-19T06:01:04.863Z,1852
2016-04-19T06:02:04.882Z,2384
2016-04-19T06:03:04.885Z,1880
2016-04-19T06:04:04.918Z,1764
2016-04-19T06:05:04.921Z,1832
2016-04-19T06:06:04.939Z,1980
2016-04-19T06:07:04.958Z,2304
2016-04-19T06:08:04.945Z,2124
2016-04-19T06:09:04.963Z,1928
2016-04-19T06:10:04.981Z,1956
2016-04-19T06:11:05.015Z,2532
2016-04-19T06:12:05.018Z,1680
2016-04-19T06:13:05.036Z,1584
2016-04-19T06:14:05.039Z,1600
2016-04-19T06:15:05.042Z,1672
2016-04-19T06:16:05.076Z,1736
2016-04-19T06:17:05.078Z,1808
2016-04-19T06:18:05.097Z,1832
2016-04-19T06:19:05.146Z,1860
2016-04-19T06:20:05.134Z,2032
2016-04-19T06:21:05.136Z,2240
2016-04-19T06:22:05.153Z,2772
2016-04-19T06:23:05.173Z,2340
2016-04-19T06:24:05.159Z,2224
2016-04-19T06:25:05.209Z,2228
2016-04-19T06:26:05.212Z,1932
2016-04-19T06:27:05.199Z,1848
2016-04-19T06:28:05.249Z,1988
2016-04-19T06:29:05.251Z,2160
2016-04-19T06:30:05.270Z,2028
2016-04-19T06:31:05.288Z,2172
2016-04-19T06:32:05.291Z,2164
2016-04-19T06:33:05.293Z,2256
2016-04-19T06:34:05.343Z,2272
2016-04-19T06:35:05.330Z,2296
2016-04-19T06:36:05.364Z,2564
2016-04-19T06:37:05.367Z,2480
2016-04-19T06:38:05.369Z,3624
2016-04-19T06:39:05.388Z,3980
2016-04-19T06:40:05.406Z,3228
2016-04-19T06:41:05.424Z,2796
2016-04-19T06:42:05.426Z,3268
2016-04-19T06:43:05.445Z,3924
2016-04-19T06:44:05.462Z,3264
2016-04-19T06:45:05.482Z,3124
2016-04-19T06:46:05.484Z,2996
2016-04-19T06:47:05.503Z,2856
2016-04-19T06:48:05.506Z,2864
2016-04-19T06:49:05.523Z,3124
2016-04-19T06:50:05.542Z,3400
2016-04-19T06:51:05.561Z,3600
2016-04-19T06:52:05.579Z,3836
2016-04-19T06:53:05.597Z,4164
2016-04-19T06:54:05.630Z,3664
2016-04-19T06:55:05.634Z,6132
2016-04-19T06:56:05.636Z,23744
2016-04-19T06:57:05.655Z,7816
2016-04-19T06:58:05.673Z,3436
2016-04-19T06:59:05.675Z,3464
2016-04-19T07:00:05.710Z,2664
2016-04-19T07:01:05.728Z,3044
2016-04-19T07:02:05.730Z,3960
2016-04-19T07:03:05.780Z,4572
2016-04-19T07:04:05.751Z,8532
2016-04-19T07:05:05.786Z,7984
2016-04-19T07:06:05.788Z,6576
2016-04-19T07:07:05.807Z,5668
2016-04-19T07:08:05.824Z,5116
2016-04-19T07:09:05.859Z,4944
2016-04-19T07:10:05.861Z,4300
2016-04-19T07:11:05.865Z,3604
2016-04-19T07:12:05.882Z,3964
2016-04-19T07:13:05.900Z,3268
